createdAt,value
2022-11-14T00:01:24.142Z,101038.22
2022-11-14T00:04:09.938Z,101032.88
2022-11-14T00:06:55.577Z,101035.28
2022-11-14T00:09:42.870Z,101027.72
2022-11-14T00:12:28.598Z,101021.72
2022-11-14T00:15:14.785Z,101034.91
2022-11-14T00:18:00.809Z,101033.81
2022-11-14T00:20:50.629Z,101028.47
2022-11-14T00:23:36.269Z,101028.62
2022-11-14T00:26:21.964Z,101033.69
2022-11-14T00:29:07.662Z,101029.34
2022-11-14T00:31:53.405Z,101027.78
2022-11-14T00:34:39.219Z,101033.81
2022-11-14T00:37:24.851Z,101032.63
2022-11-14T00:40:10.899Z,101030.03
2022-11-14T00:42:56.930Z,101022.25
2022-11-14T00:45:45.839Z,101030.97
2022-11-14T00:48:32.241Z,101032.53
2022-11-14T00:51:18.114Z,101026.78
2022-11-14T00:54:04.183Z,101026.06
2022-11-14T00:56:50.101Z,101026.91
2022-11-14T00:59:35.723Z,101031.44
2022-11-14T01:02:21.677Z,101024.94
2022-11-14T01:05:07.781Z,101017.19
2022-11-14T01:07:53.888Z,101022.44
2022-11-14T01:10:41.253Z,101018.22
2022-11-14T01:13:31.692Z,101017.00
2022-11-14T01:16:17.738Z,101019.16
2022-11-14T01:19:04.255Z,101017.84
2022-11-14T01:21:50.296Z,101004.84
2022-11-14T01:24:36.165Z,101002.34
2022-11-14T01:27:21.754Z,101004.84
2022-11-14T01:30:07.818Z,101013.69
2022-11-14T01:32:53.655Z,100999.84
2022-11-14T01:35:39.385Z,101008.53
2022-11-14T01:38:25.280Z,101003.22
2022-11-14T01:41:15.513Z,100996.16
2022-11-14T01:44:01.554Z,100997.03
2022-11-14T01:46:49.523Z,100989.06
2022-11-14T01:49:41.397Z,100995.41
2022-11-14T01:52:30.631Z,100988.34
2022-11-14T01:55:16.316Z,100988.16
2022-11-14T01:58:02.258Z,100982.75
2022-11-14T02:00:47.922Z,100985.13
2022-11-14T02:03:36.343Z,100981.78
2022-11-14T02:06:24.163Z,100986.16
2022-11-14T02:09:09.963Z,100976.06
2022-11-14T02:11:56.767Z,100978.47
2022-11-14T02:14:45.287Z,100984.78
2022-11-14T02:17:31.480Z,100988.16
2022-11-14T02:20:20.746Z,100991.88
2022-11-14T02:23:06.251Z,100986.37
2022-11-14T02:25:52.166Z,100978.25
2022-11-14T02:28:37.830Z,100974.47
2022-11-14T02:31:23.565Z,100979.81
2022-11-14T02:34:09.390Z,100985.84
2022-11-14T02:36:55.398Z,100973.03
2022-11-14T02:39:41.644Z,100981.47
2022-11-14T02:42:27.261Z,100980.41
2022-11-14T02:45:13.595Z,100981.50
2022-11-14T02:47:59.795Z,100982.37
2022-11-14T02:50:48.612Z,100983.22
2022-11-14T02:53:34.582Z,100983.06
2022-11-14T02:56:20.503Z,100975.47
2022-11-14T02:59:06.420Z,100980.69
2022-11-14T03:01:52.198Z,100972.97
2022-11-14T03:04:37.808Z,100972.84
2022-11-14T03:07:23.785Z,100977.81
2022-11-14T03:10:09.817Z,100974.09
2022-11-14T03:12:56.411Z,100976.88
2022-11-14T03:15:41.976Z,100974.00
2022-11-14T03:18:28.015Z,100975.69
2022-11-14T03:21:16.256Z,100967.59
2022-11-14T03:24:02.271Z,100960.59
2022-11-14T03:26:48.024Z,100966.50
2022-11-14T03:29:34.074Z,100972.69
2022-11-14T03:32:19.950Z,100957.59
2022-11-14T03:35:06.483Z,100956.81
2022-11-14T03:37:56.195Z,100959.37
2022-11-14T03:40:42.536Z,100960.38
2022-11-14T03:43:32.124Z,100964.97
2022-11-14T03:46:18.362Z,100956.28
2022-11-14T03:49:04.314Z,100953.62
2022-11-14T03:51:50.725Z,100954.81
2022-11-14T03:54:36.773Z,100954.75
2022-11-14T03:57:22.341Z,100963.13
2022-11-14T04:00:09.169Z,100952.16
2022-11-14T04:02:56.259Z,100955.37
2022-11-14T04:05:45.520Z,100951.25
2022-11-14T04:08:32.280Z,100950.25
2022-11-14T04:11:19.087Z,100949.44
2022-11-14T04:14:05.081Z,100950.13
2022-11-14T04:16:51.331Z,100946.84
2022-11-14T04:19:37.163Z,100942.50
2022-11-14T04:22:23.080Z,100951.34
2022-11-14T04:25:09.526Z,100952.94
2022-11-14T04:27:55.288Z,100946.88
2022-11-14T04:30:41.428Z,100940.50
2022-11-14T04:33:27.697Z,100943.03
2022-11-14T04:36:13.336Z,100936.22
2022-11-14T04:38:59.218Z,100934.50
2022-11-14T04:41:45.222Z,100927.69
2022-11-14T04:44:30.898Z,100926.72
2022-11-14T04:47:16.909Z,100927.09
2022-11-14T04:50:03.101Z,100919.50
2022-11-14T04:52:52.880Z,100911.19
2022-11-14T04:55:38.675Z,100913.56
2022-11-14T04:58:24.821Z,100909.31
2022-11-14T05:01:12.147Z,100905.56
2022-11-14T05:03:57.944Z,100903.66
2022-11-14T05:06:44.067Z,100903.81
2022-11-14T05:09:30.061Z,100902.22
2022-11-14T05:12:15.923Z,100899.47
2022-11-14T05:15:01.640Z,100893.75
2022-11-14T05:17:47.290Z,100889.81
2022-11-14T05:20:33.050Z,100901.03
2022-11-14T05:23:21.254Z,100902.38
2022-11-14T05:26:15.917Z,100907.81
2022-11-14T05:29:01.626Z,100910.12
2022-11-14T05:31:47.253Z,100901.69
2022-11-14T05:34:32.864Z,100897.69
2022-11-14T05:37:18.648Z,100901.59
2022-11-14T05:40:05.513Z,100905.97
2022-11-14T05:42:54.990Z,100908.63
2022-11-14T05:45:40.873Z,100904.16
2022-11-14T05:48:26.868Z,100901.06
2022-11-14T05:51:13.379Z,100896.75
2022-11-14T05:53:59.318Z,100905.22
2022-11-14T05:56:45.063Z,100906.62
2022-11-14T05:59:30.940Z,100905.75
2022-11-14T06:02:16.788Z,100906.41
2022-11-14T06:05:02.934Z,100912.81
2022-11-14T06:07:48.823Z,100910.41
2022-11-14T06:10:34.911Z,100916.16
2022-11-14T06:13:20.500Z,100922.84
2022-11-14T06:16:09.448Z,100916.94
2022-11-14T06:18:56.054Z,100930.22
2022-11-14T06:21:41.892Z,100931.00
2022-11-14T06:24:27.618Z,100937.09
2022-11-14T06:27:13.430Z,100935.19
2022-11-14T06:29:59.183Z,100932.88
2022-11-14T06:32:44.980Z,100922.75
2022-11-14T06:35:33.091Z,100930.66
2022-11-14T06:38:18.921Z,100938.06
2022-11-14T06:41:13.274Z,100939.94
2022-11-14T06:43:59.017Z,100938.09
2022-11-14T06:46:44.823Z,100939.69
2022-11-14T06:49:30.542Z,100934.78
2022-11-14T06:52:16.320Z,100936.84
2022-11-14T06:55:01.972Z,100934.06
2022-11-14T06:57:52.941Z,100936.00
2022-11-14T07:00:38.722Z,100938.00
2022-11-14T07:03:24.475Z,100942.88
2022-11-14T07:06:14.697Z,100942.97
2022-11-14T07:09:00.875Z,100950.00
2022-11-14T07:11:47.642Z,100946.50
2022-11-14T07:14:33.622Z,100940.50
2022-11-14T07:17:19.360Z,100939.19
2022-11-14T07:20:06.046Z,100941.81
2022-11-14T07:22:51.665Z,100934.12
2022-11-14T07:25:37.447Z,100932.37
2022-11-14T07:28:23.279Z,100927.19
2022-11-14T07:31:14.165Z,100924.03
2022-11-14T07:34:00.084Z,100924.28
2022-11-14T07:36:45.872Z,100936.25
2022-11-14T07:39:31.614Z,100931.38
2022-11-14T07:42:17.365Z,100931.34
2022-11-14T07:45:03.275Z,100932.56
2022-11-14T07:47:49.055Z,100929.91
2022-11-14T07:50:35.093Z,100928.19
2022-11-14T07:53:20.789Z,100929.44
2022-11-14T07:56:11.183Z,100933.16
2022-11-14T07:58:56.773Z,100928.09
2022-11-14T08:01:42.507Z,100930.47
2022-11-14T08:04:28.309Z,100926.34
2022-11-14T08:07:14.030Z,100921.41
2022-11-14T08:09:59.649Z,100921.59
2022-11-14T08:12:45.838Z,100921.59
2022-11-14T08:15:32.049Z,100917.94
2022-11-14T08:18:17.771Z,100913.72
2022-11-14T08:21:04.698Z,100921.50
2022-11-14T08:23:50.296Z,100915.63
2022-11-14T08:26:36.345Z,100915.69
2022-11-14T08:29:22.200Z,100913.09
2022-11-14T08:32:07.810Z,100906.22
2022-11-14T08:34:53.539Z,100899.47
2022-11-14T08:37:39.228Z,100903.94
2022-11-14T08:40:25.305Z,100906.41
2022-11-14T08:43:11.715Z,100902.03
2022-11-14T08:46:01.485Z,100900.59
2022-11-14T08:48:48.065Z,100894.53
2022-11-14T08:51:36.467Z,100893.59
2022-11-14T08:54:22.353Z,100893.72
2022-11-14T08:57:08.355Z,100886.09
2022-11-14T08:59:55.398Z,100877.37
2022-11-14T09:02:41.449Z,100886.09
2022-11-14T09:05:27.367Z,100889.66
2022-11-14T09:08:13.351Z,100879.28
2022-11-14T09:11:05.623Z,100886.38
2022-11-14T09:13:52.104Z,100894.25
2022-11-14T09:16:37.806Z,100894.28
2022-11-14T09:19:24.125Z,100890.75
2022-11-14T09:22:09.712Z,100889.78
2022-11-14T09:24:55.518Z,100893.41
2022-11-14T09:27:41.406Z,100887.19
2022-11-14T09:30:27.072Z,100888.16
2022-11-14T09:33:13.138Z,100883.84
2022-11-14T09:35:59.952Z,100884.75
2022-11-14T09:38:46.434Z,100884.81
2022-11-14T09:42:01.392Z,100874.44
2022-11-14T09:44:55.942Z,100877.00
2022-11-14T09:47:47.481Z,100867.53
2022-11-14T09:50:34.668Z,100870.97
2022-11-14T09:53:29.262Z,100853.53
2022-11-14T09:56:25.234Z,100861.41
2022-11-14T09:59:12.009Z,100854.41
2022-11-14T10:02:12.850Z,100856.25
2022-11-14T10:05:13.793Z,100849.31
2022-11-14T10:08:18.343Z,100847.59
2022-11-14T10:11:15.853Z,100841.53
2022-11-14T10:14:19.494Z,100839.78
2022-11-14T10:17:10.732Z,100829.34
2022-11-14T10:20:35.367Z,100827.69
2022-11-14T10:23:33.548Z,100818.88
2022-11-14T10:26:30.010Z,100814.53
2022-11-14T10:29:33.750Z,100814.56
2022-11-14T10:32:33.550Z,100810.22
2022-11-14T10:35:33.831Z,100810.28
2022-11-14T10:38:30.249Z,100802.34
2022-11-14T10:41:34.559Z,100805.06
2022-11-14T10:44:27.099Z,100795.47
2022-11-14T10:47:15.879Z,100799.84
2022-11-14T10:50:12.144Z,100806.81
2022-11-14T10:53:01.885Z,100793.75
2022-11-14T10:56:03.598Z,100791.12
2022-11-14T10:58:50.713Z,100791.12
2022-11-14T11:01:41.285Z,100783.31
2022-11-14T11:04:36.991Z,100778.94
2022-11-14T11:07:43.778Z,100778.09
2022-11-14T11:10:48.687Z,100776.34
2022-11-14T11:13:36.996Z,100776.34
2022-11-14T11:16:24.648Z,100766.75
2022-11-14T11:19:24.730Z,100763.25
2022-11-14T11:22:33.321Z,100756.28
2022-11-14T11:25:30.307Z,100755.41
2022-11-14T11:28:19.019Z,100754.50
2022-11-14T11:31:09.280Z,100748.44
2022-11-14T11:33:55.482Z,100744.06
2022-11-14T11:36:45.444Z,100744.94
2022-11-14T11:39:35.156Z,100738.84
2022-11-14T11:46:06.209Z,100745.81
2022-11-14T11:48:57.500Z,100732.72
2022-11-14T11:51:45.542Z,100735.31
2022-11-14T11:54:44.325Z,100729.25
2022-11-14T11:57:45.417Z,100732.72
2022-11-14T12:00:31.844Z,100724.00
2022-11-14T12:03:20.978Z,100717.94
2022-11-14T12:06:27.303Z,100712.66
2022-11-14T12:09:22.115Z,100712.66
2022-11-14T12:12:18.142Z,100705.72
2022-11-14T12:15:22.826Z,100696.97
2022-11-14T12:18:16.880Z,100691.72
2022-11-14T12:21:19.642Z,100690.00
2022-11-14T12:24:23.746Z,100688.22
2022-11-14T12:27:40.311Z,100680.41
2022-11-14T12:30:26.703Z,100676.91
2022-11-14T12:33:19.795Z,100680.38
2022-11-14T12:36:09.180Z,100667.22
2022-11-14T12:38:55.574Z,100672.50
2022-11-14T12:41:41.932Z,100667.22
2022-11-14T12:44:27.626Z,100659.38
2022-11-14T12:47:19.402Z,100658.50
2022-11-14T12:50:35.151Z,100659.38
2022-11-14T12:53:35.825Z,100665.56
2022-11-14T12:56:30.891Z,100651.56
2022-11-14T12:59:30.224Z,100650.69
2022-11-14T13:02:31.140Z,100648.03
2022-11-14T13:05:22.532Z,100641.94
2022-11-14T13:08:35.487Z,100633.03
2022-11-14T13:11:55.010Z,100635.72
2022-11-14T13:15:18.234Z,100633.03
2022-11-14T13:18:27.415Z,100634.00
2022-11-14T13:21:45.629Z,100636.56
2022-11-14T13:24:59.797Z,100630.50
2022-11-14T13:28:06.630Z,100627.06
2022-11-14T13:31:18.431Z,100634.94
2022-11-14T13:34:29.025Z,100627.09
2022-11-14T13:37:39.943Z,100623.53
2022-11-14T13:40:38.105Z,100613.03
2022-11-14T13:43:38.807Z,100613.06
2022-11-14T13:46:37.958Z,100614.81
2022-11-14T13:49:41.863Z,100609.59
2022-11-14T13:52:31.494Z,100603.50
2022-11-14T13:55:22.943Z,100597.38
2022-11-14T13:58:43.938Z,100600.84
2022-11-14T14:01:29.536Z,100599.78
2022-11-14T14:04:29.773Z,100594.59
2022-11-14T14:07:44.384Z,100594.69
2022-11-14T14:10:57.749Z,100592.06
2022-11-14T14:14:01.766Z,100595.63
2022-11-14T14:17:10.036Z,100594.72
2022-11-14T14:20:15.420Z,100600.91
2022-11-14T14:23:16.370Z,100598.28
2022-11-14T14:26:28.299Z,100601.69
2022-11-14T14:29:24.217Z,100595.50
2022-11-14T14:32:18.400Z,100599.94
2022-11-14T14:35:26.442Z,100593.84
2022-11-14T14:38:14.203Z,100594.81
2022-11-14T14:41:00.302Z,100588.69
2022-11-14T14:43:51.942Z,100582.59
2022-11-14T14:46:37.606Z,100581.69
2022-11-14T14:49:27.513Z,100575.56
2022-11-14T14:52:35.962Z,100572.06
2022-11-14T14:55:33.233Z,100573.81
2022-11-14T14:58:22.659Z,100574.72
2022-11-14T15:01:19.720Z,100574.72
2022-11-14T15:04:07.573Z,100572.16
2022-11-14T15:06:55.981Z,100575.69
2022-11-14T15:09:52.115Z,100572.22
2022-11-14T15:12:40.180Z,100576.56
2022-11-14T15:15:27.075Z,100573.97
2022-11-14T15:18:32.604Z,100573.13
2022-11-14T15:21:24.499Z,100573.13
2022-11-14T15:24:23.153Z,100570.53
2022-11-14T15:27:12.725Z,100575.81
2022-11-14T15:30:02.030Z,100567.09
2022-11-14T15:32:50.006Z,100559.25
2022-11-14T15:35:37.886Z,100557.53
2022-11-14T15:41:33.302Z,100554.91
2022-11-14T15:44:33.094Z,100561.88
2022-11-14T15:47:23.169Z,100566.25
2022-11-14T15:50:11.543Z,100560.16
2022-11-14T15:53:06.907Z,100560.13
2022-11-14T15:55:52.756Z,100568.00
2022-11-14T15:58:38.471Z,100559.28
2022-11-14T16:01:25.972Z,100556.63
2022-11-14T16:04:18.363Z,100572.31
2022-11-14T16:07:04.857Z,100567.94
2022-11-14T16:09:51.078Z,100565.34
2022-11-14T16:12:37.140Z,100566.19
2022-11-14T16:15:22.680Z,100566.22
2022-11-14T16:18:08.503Z,100573.19
2022-11-14T16:20:58.636Z,100571.47
2022-11-14T16:23:44.962Z,100577.53
2022-11-14T16:26:31.317Z,100575.81
2022-11-14T16:29:19.125Z,100576.59
2022-11-14T16:32:04.834Z,100575.69
2022-11-14T16:34:50.537Z,100570.44
2022-11-14T16:37:36.344Z,100571.28
2022-11-14T16:40:27.688Z,100567.81
2022-11-14T16:43:14.525Z,100579.94
2022-11-14T16:46:07.264Z,100578.19
2022-11-14T16:48:54.686Z,100574.69
2022-11-14T16:51:50.271Z,100572.91
2022-11-14T16:54:36.761Z,100578.03
2022-11-14T16:57:23.330Z,100576.34
2022-11-14T17:00:12.306Z,100579.81
2022-11-14T17:02:58.306Z,100580.63
2022-11-14T17:05:45.159Z,100576.25
2022-11-14T17:08:30.743Z,100577.97
2022-11-14T17:11:16.668Z,100569.16
2022-11-14T17:14:02.274Z,100576.06
2022-11-14T17:16:48.101Z,100565.59
2022-11-14T17:19:34.147Z,100565.44
2022-11-14T17:22:20.072Z,100567.19
2022-11-14T17:25:06.364Z,100569.03
2022-11-14T17:27:52.254Z,100555.75
2022-11-14T17:30:44.009Z,100556.69
2022-11-14T17:33:29.884Z,100568.00
2022-11-14T17:36:16.102Z,100562.75
2022-11-14T17:39:01.944Z,100555.75
2022-11-14T17:41:47.627Z,100553.09
2022-11-14T17:44:33.408Z,100558.38
2022-11-14T17:47:20.090Z,100555.72
2022-11-14T17:50:06.184Z,100560.91
2022-11-14T17:52:52.308Z,100561.66
2022-11-14T17:55:38.531Z,100558.16
2022-11-14T17:58:25.073Z,100547.75
2022-11-14T18:01:16.391Z,100546.09
2022-11-14T18:04:06.058Z,100537.41
2022-11-14T18:06:52.834Z,100543.50
2022-11-14T18:09:38.978Z,100535.56
2022-11-14T18:12:24.878Z,100545.03
2022-11-14T18:15:10.912Z,100544.34
2022-11-14T18:17:56.642Z,100537.34
2022-11-14T18:20:42.473Z,100540.81
2022-11-14T18:23:27.970Z,100546.84
2022-11-14T18:26:15.346Z,100546.03
2022-11-14T18:29:02.242Z,100550.34
2022-11-14T18:31:48.400Z,100552.81
2022-11-14T18:34:36.934Z,100548.44
2022-11-14T18:37:23.356Z,100539.75
2022-11-14T18:40:16.093Z,100541.63
2022-11-14T18:43:02.795Z,100538.09
2022-11-14T18:45:48.625Z,100537.09
2022-11-14T18:48:35.914Z,100537.06
2022-11-14T18:51:24.099Z,100537.94
2022-11-14T18:54:12.144Z,100537.06
2022-11-14T18:56:57.946Z,100537.72
2022-11-14T18:59:43.517Z,100527.19
2022-11-14T19:02:29.606Z,100531.50
2022-11-14T19:05:15.621Z,100525.47
2022-11-14T19:08:01.546Z,100534.06
2022-11-14T19:10:47.380Z,100527.12
2022-11-14T19:13:33.566Z,100528.84
2022-11-14T19:16:19.320Z,100525.37
2022-11-14T19:19:06.439Z,100528.75
2022-11-14T19:21:52.425Z,100523.41
2022-11-14T19:24:42.865Z,100526.91
2022-11-14T19:27:28.914Z,100530.31
2022-11-14T19:30:16.435Z,100529.28
2022-11-14T19:33:03.310Z,100533.66
2022-11-14T19:35:49.444Z,100527.38
2022-11-14T19:38:35.374Z,100519.41
2022-11-14T19:41:22.172Z,100519.53
2022-11-14T19:44:08.024Z,100525.63
2022-11-14T19:46:53.802Z,100535.84
2022-11-14T19:49:39.497Z,100531.53
2022-11-14T19:52:25.286Z,100539.03
2022-11-14T19:55:11.034Z,100539.94
2022-11-14T19:57:58.810Z,100542.53
2022-11-14T20:00:44.844Z,100523.66
2022-11-14T20:03:30.911Z,100519.03
2022-11-14T20:06:21.680Z,100512.91
2022-11-14T20:09:09.375Z,100523.44
2022-11-14T20:11:55.317Z,100526.53
2022-11-14T20:14:41.184Z,100514.69
2022-11-14T20:17:26.984Z,100505.34
2022-11-14T20:20:12.855Z,100503.59
2022-11-14T20:22:58.526Z,100496.50
2022-11-14T20:25:44.282Z,100494.72
2022-11-14T20:28:29.977Z,100501.47
2022-11-14T20:31:19.078Z,100508.22
2022-11-14T20:34:05.242Z,100500.63
2022-11-14T20:39:57.177Z,100498.78
2022-11-14T20:42:47.122Z,100497.03
2022-11-14T20:45:32.856Z,100492.78
2022-11-14T20:48:18.641Z,100491.75
2022-11-14T20:51:06.773Z,100498.72
2022-11-14T20:53:55.113Z,100502.63
2022-11-14T20:56:41.125Z,100504.41
2022-11-14T20:59:26.687Z,100500.25
2022-11-14T21:02:13.073Z,100494.16
2022-11-14T21:04:59.442Z,100497.38
2022-11-14T21:07:45.422Z,100492.13
2022-11-14T21:10:46.098Z,100485.47
2022-11-14T21:13:53.679Z,100486.25
2022-11-14T21:16:40.189Z,100473.06
2022-11-14T21:19:26.195Z,100476.28
2022-11-14T21:22:13.142Z,100482.13
2022-11-14T21:24:58.967Z,100472.47
2022-11-14T21:27:44.754Z,100460.53
2022-11-14T21:30:34.521Z,100467.81
2022-11-14T21:33:20.810Z,100462.69
2022-11-14T21:36:37.974Z,100454.69
2022-11-14T21:39:17.687Z,100459.12
2022-11-14T21:42:04.147Z,100452.88
2022-11-14T21:44:49.909Z,100448.94
2022-11-14T21:47:35.552Z,100449.53
2022-11-14T21:50:21.595Z,100449.38
2022-11-14T21:53:15.779Z,100445.19
2022-11-14T21:56:16.034Z,100448.00
2022-11-14T21:59:12.663Z,100441.78
2022-11-14T22:02:17.341Z,100444.56
2022-11-14T22:05:03.412Z,100445.22
2022-11-14T22:07:49.137Z,100447.16
2022-11-14T22:10:34.899Z,100443.78
2022-11-14T22:13:20.648Z,100442.09
2022-11-14T22:16:07.330Z,100448.25
2022-11-14T22:18:53.425Z,100432.56
2022-11-14T22:21:39.370Z,100423.94
2022-11-14T22:24:24.936Z,100422.25
2022-11-14T22:27:10.994Z,100423.19
2022-11-14T22:29:56.853Z,100429.28
2022-11-14T22:32:42.576Z,100424.25
2022-11-14T22:35:28.545Z,100421.72
2022-11-14T22:38:14.357Z,100419.75
2022-11-14T22:41:00.611Z,100420.66
2022-11-14T22:43:46.875Z,100413.16
2022-11-14T22:46:32.612Z,100414.97
2022-11-14T22:49:21.020Z,100412.31
2022-11-14T22:52:07.150Z,100415.88
2022-11-14T22:54:52.813Z,100415.81
2022-11-14T22:57:38.398Z,100409.44
2022-11-14T23:00:24.610Z,100404.25
2022-11-14T23:03:10.486Z,100404.38
2022-11-14T23:05:56.467Z,100403.72
2022-11-14T23:08:42.497Z,100391.56
2022-11-14T23:11:29.806Z,100396.41
2022-11-14T23:14:15.691Z,100401.88
2022-11-14T23:17:01.373Z,100405.16
2022-11-14T23:19:47.050Z,100400.84
2022-11-14T23:22:32.693Z,100399.06
2022-11-14T23:25:18.418Z,100390.50
2022-11-14T23:28:04.249Z,100384.59
2022-11-14T23:30:50.000Z,100388.09
2022-11-14T23:33:35.633Z,100372.75
2022-11-14T23:36:21.639Z,100386.25
2022-11-14T23:39:07.202Z,100383.00
2022-11-14T23:41:52.787Z,100375.94
2022-11-14T23:44:38.786Z,100378.47
2022-11-14T23:47:24.594Z,100359.63
2022-11-14T23:50:10.445Z,100354.28
2022-11-14T23:52:56.101Z,100366.44
2022-11-14T23:55:42.077Z,100363.75
2022-11-14T23:58:29.317Z,100366.97
